Baie-Comeau, Canada
Current Conditions -  °F | °C
As of 7:00 PM on Saturday 25 Oct 2014 (Local Time) from CYBC Reporting Station
Light Rain Light Rain  
Wind Chill: 32°   Ceiling: 2000
Heat Index: 41°   Visibility: 9mi
Dew Point: 36°   Wind: 18mph
Humidity: 81%   Direction: 70°ENE
Pressure: 29.58"   Gusts: 24mph
Location:  49.22°N, 68.15°W
Report Text: CYBC 252300Z AUTO 07016G21KT 9SM -RA OVC020 05/02 A2958 RMK SLP018
Loading
Personal Weather Stations






























Interactive Weather Map
Tropical Storm Tracking
New forecast layout! Learn more

10-Day Weather Forecast

Advertisements
Track Severe Weather on mobile